57°F Temp
52°F Dewpoint
% Humidity
Temperature
10 MPH
16 KM/H
9 KTS
170°
Due South

Wind Speed
Overcast
Conditions
Pressure 1019.32 (hPa) - 30.1 (in)
Visibility 9.9 (mi) - 16.0 (km)

Current Conditions
KPAE
Location 8(mi)
Metar :KPAE 261712Z 17009KT 10SM OVC016 14/11 A3010 RMK AO2 T01390106
Sat 26th September 10:12 am

Airport
  Metar Aviation API Data Provided by https://www.checkwx.com/ PHP scripts by weather34.com ©2020